Hamamatsu, Japan
Current Conditions -  °F | °C
As of 8:00 PM on Saturday 25 Oct 2014 (Local Time) from RJNS Reporting Station
Broken Clouds Broken Clouds  
Wind Chill: 64°   Ceiling: 12000
Heat Index: 64°   Visibility: 6mi
Dew Point: 61°   Wind: 5mph
Humidity: 88%   Direction: 320°NW
Pressure: 30.18"   Gusts: NA
Location:  34.72°N, 137.73°E
Report Text: RJNS 251100Z 32004KT 290V350 9999 FEW025 SCT035 BKN120 18/16 Q1022
Loading
Personal Weather Stations






























Interactive Weather Map
Tropical Storm Tracking
New forecast layout! Learn more

10-Day Weather Forecast

Advertisements
Track Severe Weather on mobile